createdAt,value
2017-09-11T00:01:01.097Z,83.22
2017-09-11T00:03:30.600Z,83.08
2017-09-11T00:05:59.935Z,83.07
2017-09-11T00:08:29.283Z,83.20
2017-09-11T00:10:58.607Z,83.03
2017-09-11T00:13:27.999Z,83.16
2017-09-11T00:15:57.436Z,83.11
2017-09-11T00:18:26.747Z,83.35
2017-09-11T00:20:56.255Z,83.19
2017-09-11T00:23:25.548Z,83.01
2017-09-11T00:25:54.887Z,82.98
2017-09-11T00:28:24.343Z,82.84
2017-09-11T00:30:53.978Z,82.56
2017-09-11T00:33:23.335Z,82.38
2017-09-11T00:35:52.640Z,82.35
2017-09-11T00:38:21.988Z,82.36
2017-09-11T00:40:51.384Z,82.14
2017-09-11T00:43:21.136Z,82.28
2017-09-11T00:45:50.760Z,82.12
2017-09-11T00:48:20.047Z,81.88
2017-09-11T00:50:49.377Z,81.76
2017-09-11T00:53:18.692Z,81.79
2017-09-11T00:55:48.056Z,81.79
2017-09-11T00:58:17.377Z,81.78
2017-09-11T01:00:46.719Z,81.81
2017-09-11T01:03:16.102Z,81.89
2017-09-11T01:05:45.435Z,81.73
2017-09-11T01:08:14.732Z,81.62
2017-09-11T01:10:44.088Z,81.72
2017-09-11T01:13:13.432Z,81.81
2017-09-11T01:15:42.901Z,81.86
2017-09-11T01:18:12.251Z,81.86
2017-09-11T01:20:41.653Z,81.88
2017-09-11T01:23:11.008Z,82.15
2017-09-11T01:25:40.527Z,82.04
2017-09-11T01:28:10.003Z,82.09
2017-09-11T01:30:46.117Z,82.21
2017-09-11T01:33:15.481Z,82.33
2017-09-11T01:35:44.849Z,82.50
2017-09-11T01:38:14.160Z,82.62
2017-09-11T01:40:43.517Z,82.49
2017-09-11T01:43:12.951Z,82.67
2017-09-11T01:45:42.318Z,82.69
2017-09-11T01:48:11.685Z,82.87
2017-09-11T01:50:41.002Z,82.77
2017-09-11T01:53:10.263Z,83.05
2017-09-11T01:55:39.608Z,83.18
2017-09-11T01:58:08.884Z,83.14
2017-09-11T02:00:38.198Z,83.26
2017-09-11T02:03:07.544Z,83.49
2017-09-11T02:05:36.935Z,83.46
2017-09-11T02:08:06.216Z,83.68
2017-09-11T02:10:35.552Z,83.73
2017-09-11T02:13:04.873Z,83.81
2017-09-11T02:15:34.344Z,83.94
2017-09-11T02:18:03.769Z,84.03
2017-09-11T02:20:33.149Z,84.15
2017-09-11T02:23:02.448Z,84.23
2017-09-11T02:25:31.762Z,84.29
2017-09-11T02:28:02.132Z,84.31
2017-09-11T02:30:31.515Z,84.53
2017-09-11T02:33:00.958Z,84.60
2017-09-11T02:35:30.340Z,84.78
2017-09-11T02:37:59.871Z,84.68
2017-09-11T02:40:29.462Z,84.65
2017-09-11T02:42:58.787Z,84.92
2017-09-11T02:45:28.276Z,84.90
2017-09-11T02:47:57.643Z,84.91
2017-09-11T02:50:27.148Z,84.94
2017-09-11T02:52:56.485Z,84.95
2017-09-11T02:55:25.811Z,85.05
2017-09-11T02:57:55.225Z,85.18
2017-09-11T03:00:24.641Z,85.11
2017-09-11T03:02:54.032Z,85.20
2017-09-11T03:05:23.486Z,85.29
2017-09-11T03:07:52.842Z,85.26
2017-09-11T03:10:22.363Z,85.36
2017-09-11T03:12:53.726Z,85.47
2017-09-11T03:15:23.220Z,85.45
2017-09-11T03:17:52.527Z,85.46
2017-09-11T03:20:22.247Z,85.39
2017-09-11T03:22:51.553Z,85.67
2017-09-11T03:25:20.961Z,85.72
2017-09-11T03:27:50.516Z,85.80
2017-09-11T03:30:20.042Z,85.89
2017-09-11T03:32:49.560Z,85.80
2017-09-11T03:35:19.098Z,85.90
2017-09-11T03:37:48.527Z,85.89
2017-09-11T03:40:17.895Z,85.88
2017-09-11T03:42:47.184Z,85.77
2017-09-11T03:45:16.534Z,85.60
2017-09-11T03:47:45.815Z,85.51
2017-09-11T03:50:15.281Z,85.44
2017-09-11T03:52:44.969Z,85.42
2017-09-11T03:55:14.576Z,85.34
2017-09-11T03:57:44.049Z,85.38
2017-09-11T04:00:13.415Z,85.33
2017-09-11T04:02:43.020Z,85.54
2017-09-11T04:05:12.549Z,85.23
2017-09-11T04:07:41.892Z,85.31
2017-09-11T04:10:11.318Z,85.17
2017-09-11T04:12:40.677Z,85.21
2017-09-11T04:15:10.384Z,85.22
2017-09-11T04:17:39.668Z,85.16
2017-09-11T04:20:09.027Z,85.25
2017-09-11T04:22:39.248Z,85.29
2017-09-11T04:25:08.652Z,85.23
2017-09-11T04:27:37.991Z,85.16
2017-09-11T04:30:07.473Z,85.09
2017-09-11T04:32:36.988Z,85.23
2017-09-11T04:35:06.917Z,85.11
2017-09-11T04:37:36.340Z,85.10
2017-09-11T04:40:05.868Z,85.06
2017-09-11T04:42:35.465Z,85.21
2017-09-11T04:45:04.827Z,85.10
2017-09-11T04:47:34.214Z,85.08
2017-09-11T04:50:03.560Z,85.00
2017-09-11T04:52:32.921Z,84.75
2017-09-11T04:55:02.276Z,85.03
2017-09-11T04:57:31.714Z,84.94
2017-09-11T05:00:01.313Z,84.80
2017-09-11T05:02:30.802Z,84.73
2017-09-11T05:05:00.348Z,84.76
2017-09-11T05:07:29.744Z,84.79
2017-09-11T05:09:59.338Z,84.70
2017-09-11T05:12:28.839Z,84.55
2017-09-11T05:14:58.126Z,84.46
2017-09-11T05:17:27.469Z,84.16
2017-09-11T05:19:56.910Z,84.12
2017-09-11T05:22:26.365Z,83.84
2017-09-11T05:24:55.721Z,83.65
2017-09-11T05:27:25.038Z,83.36
2017-09-11T05:29:54.502Z,83.03
2017-09-11T05:32:24.072Z,82.71
2017-09-11T05:34:53.438Z,82.07
2017-09-11T05:37:22.755Z,81.85
2017-09-11T05:39:53.061Z,81.27
2017-09-11T05:42:23.334Z,81.01
2017-09-11T05:44:52.726Z,80.35
2017-09-11T05:47:22.141Z,80.15
2017-09-11T05:49:51.553Z,79.70
2017-09-11T05:52:20.990Z,79.61
2017-09-11T05:54:50.391Z,78.38
2017-09-11T05:57:20.447Z,77.17
2017-09-11T05:59:49.777Z,76.05
2017-09-11T06:02:19.255Z,75.78
2017-09-11T06:04:48.724Z,73.18
2017-09-11T06:07:26.787Z,72.08
2017-09-11T06:09:56.730Z,70.05
2017-09-11T06:12:58.524Z,69.29
2017-09-11T06:15:27.933Z,67.45
2017-09-11T06:17:57.299Z,66.92
2017-09-11T06:20:26.676Z,65.79
2017-09-11T06:23:01.428Z,65.25
2017-09-11T06:25:31.497Z,64.80
2017-09-11T06:28:00.804Z,64.92
2017-09-11T06:30:30.180Z,64.12
2017-09-11T06:32:59.505Z,63.98
2017-09-11T06:35:29.073Z,62.49
2017-09-11T06:37:58.547Z,62.31
2017-09-11T06:40:27.871Z,63.03
2017-09-11T06:42:57.188Z,63.10
2017-09-11T06:45:26.611Z,62.93
2017-09-11T06:47:55.960Z,63.28
2017-09-11T06:50:25.308Z,64.42
2017-09-11T06:52:54.772Z,65.09
2017-09-11T06:55:24.116Z,65.68
2017-09-11T06:57:53.373Z,66.60
2017-09-11T07:00:23.395Z,67.74
2017-09-11T07:02:52.729Z,67.98
2017-09-11T07:05:22.349Z,68.35
2017-09-11T07:07:51.628Z,68.86
2017-09-11T07:10:20.956Z,70.01
2017-09-11T07:13:31.517Z,69.83
2017-09-11T07:16:00.988Z,70.34
2017-09-11T07:18:30.263Z,71.00
2017-09-11T07:21:00.249Z,70.84
2017-09-11T07:23:29.741Z,71.33
2017-09-11T07:25:59.784Z,71.54
2017-09-11T07:28:53.020Z,70.92
2017-09-11T07:31:23.057Z,70.98
2017-09-11T07:33:52.879Z,71.38
2017-09-11T07:36:22.478Z,71.35
2017-09-11T07:38:52.988Z,70.79
2017-09-11T07:41:23.481Z,70.90
2017-09-11T07:43:52.855Z,70.81
2017-09-11T07:46:22.182Z,70.41
2017-09-11T07:48:51.468Z,70.11
2017-09-11T07:51:20.829Z,70.25
2017-09-11T07:53:50.501Z,70.36
2017-09-11T07:56:20.844Z,70.04
2017-09-11T07:58:50.715Z,69.47
2017-09-11T08:01:20.281Z,68.78
2017-09-11T08:03:49.620Z,68.94
2017-09-11T08:06:19.151Z,67.70
2017-09-11T08:08:48.517Z,67.92
2017-09-11T08:11:17.860Z,67.29
2017-09-11T08:13:47.196Z,66.38
2017-09-11T08:16:16.638Z,67.08
2017-09-11T08:18:46.010Z,66.22
2017-09-11T08:21:15.565Z,67.06
2017-09-11T08:23:44.940Z,65.86
2017-09-11T08:26:14.739Z,66.14
2017-09-11T08:28:44.745Z,66.44
2017-09-11T08:31:14.390Z,66.46
2017-09-11T08:33:43.725Z,66.01
2017-09-11T08:36:13.055Z,66.06
2017-09-11T08:38:42.467Z,66.44
2017-09-11T08:41:11.865Z,64.60
2017-09-11T08:43:41.277Z,64.38
2017-09-11T08:46:10.643Z,64.42
2017-09-11T08:48:39.940Z,64.36
2017-09-11T08:51:09.339Z,63.85
2017-09-11T08:53:38.641Z,63.71
2017-09-11T08:56:07.976Z,64.79
2017-09-11T08:58:37.601Z,64.52
2017-09-11T09:01:06.948Z,63.41
2017-09-11T09:03:36.557Z,63.54
2017-09-11T09:06:05.967Z,63.76
2017-09-11T09:08:35.429Z,64.01
2017-09-11T09:11:05.177Z,63.34
2017-09-11T09:13:34.479Z,63.29
2017-09-11T09:16:03.976Z,62.92
2017-09-11T09:18:39.212Z,62.50
2017-09-11T09:21:19.164Z,61.48
2017-09-11T09:23:54.165Z,61.95
2017-09-11T09:26:34.486Z,60.11
2017-09-11T09:29:04.069Z,59.60
2017-09-11T09:31:34.162Z,61.17
2017-09-11T09:34:04.387Z,61.31
2017-09-11T09:36:33.954Z,60.68
2017-09-11T09:39:03.537Z,59.58
2017-09-11T09:41:33.937Z,58.47
2017-09-11T09:44:03.759Z,56.39
2017-09-11T09:46:33.184Z,55.20
2017-09-11T09:49:06.525Z,53.45
2017-09-11T09:53:27.890Z,52.48
2017-09-11T09:58:45.636Z,53.56
2017-09-11T10:01:14.956Z,52.21
2017-09-11T10:03:44.344Z,52.07
2017-09-11T10:06:13.719Z,50.61
2017-09-11T10:08:43.045Z,48.70
2017-09-11T10:11:12.949Z,46.31
2017-09-11T10:13:42.296Z,45.62
2017-09-11T10:16:11.651Z,48.29
2017-09-11T10:18:40.993Z,50.53
2017-09-11T10:21:10.533Z,52.50
2017-09-11T10:23:39.875Z,52.61
2017-09-11T10:26:09.526Z,54.16
2017-09-11T10:28:38.869Z,55.07
2017-09-11T10:31:08.207Z,55.56
2017-09-11T10:33:38.597Z,55.24
2017-09-11T10:36:08.700Z,54.89
2017-09-11T10:38:38.879Z,53.70
2017-09-11T10:41:08.535Z,53.39
2017-09-11T10:43:38.162Z,53.36
2017-09-11T10:46:07.536Z,53.42
2017-09-11T10:48:36.945Z,53.06
2017-09-11T10:51:06.437Z,53.18
2017-09-11T10:53:35.800Z,52.77
2017-09-11T10:56:05.320Z,52.40
2017-09-11T10:58:34.797Z,52.78
2017-09-11T11:01:04.600Z,53.08
2017-09-11T11:03:34.166Z,52.49
2017-09-11T11:06:05.547Z,52.03
2017-09-11T11:08:35.041Z,53.52
2017-09-11T11:11:04.548Z,53.90
2017-09-11T11:13:34.040Z,53.12
2017-09-11T11:16:03.421Z,53.60
2017-09-11T11:18:32.806Z,53.83
2017-09-11T11:21:02.309Z,53.22
2017-09-11T11:23:31.745Z,54.75
2017-09-11T11:26:01.148Z,53.61
2017-09-11T11:28:30.528Z,54.66
2017-09-11T11:30:59.865Z,53.86
2017-09-11T11:33:29.211Z,53.32
2017-09-11T11:35:58.742Z,55.15
2017-09-11T11:38:28.119Z,55.33
2017-09-11T11:41:04.081Z,54.02
2017-09-11T11:43:33.392Z,53.91
2017-09-11T11:46:02.735Z,54.40
2017-09-11T11:48:33.667Z,55.30
2017-09-11T11:51:03.058Z,55.46
2017-09-11T11:53:32.411Z,56.10
2017-09-11T11:56:02.249Z,55.06
2017-09-11T11:58:31.611Z,55.82
2017-09-11T12:01:01.002Z,55.83
2017-09-11T12:06:16.258Z,57.61
2017-09-11T12:08:45.596Z,56.31
2017-09-11T12:11:15.577Z,56.49
2017-09-11T12:13:44.891Z,56.57
2017-09-11T12:16:14.295Z,56.56
2017-09-11T12:18:43.664Z,58.33
2017-09-11T12:21:12.989Z,57.80
2017-09-11T12:23:42.329Z,58.02
2017-09-11T12:26:11.786Z,56.79
2017-09-11T12:28:42.139Z,57.90
2017-09-11T12:31:11.514Z,57.61
2017-09-11T12:33:40.864Z,58.12
2017-09-11T12:36:10.208Z,58.47
2017-09-11T12:38:39.491Z,58.49
2017-09-11T12:41:08.872Z,58.37
2017-09-11T12:43:38.221Z,58.80
2017-09-11T12:46:07.751Z,59.36
2017-09-11T12:48:37.068Z,59.67
2017-09-11T12:51:06.461Z,61.43
2017-09-11T12:53:35.872Z,61.94
2017-09-11T12:56:05.396Z,63.54
2017-09-11T12:58:34.704Z,62.65
2017-09-11T13:01:04.343Z,62.83
2017-09-11T13:03:34.012Z,63.41
2017-09-11T13:06:03.404Z,63.08
2017-09-11T13:08:32.832Z,64.13
2017-09-11T13:11:02.847Z,63.27
2017-09-11T13:13:32.605Z,63.22
2017-09-11T13:16:02.364Z,61.89
2017-09-11T13:18:31.673Z,62.07
2017-09-11T13:21:00.981Z,61.17
2017-09-11T13:23:30.334Z,62.10
2017-09-11T13:25:59.677Z,61.85
2017-09-11T13:28:29.001Z,61.82
2017-09-11T13:30:58.307Z,60.42
2017-09-11T13:33:27.745Z,60.63
2017-09-11T13:35:57.264Z,60.18
2017-09-11T13:38:26.777Z,60.90
2017-09-11T13:40:56.292Z,58.85
2017-09-11T13:43:25.716Z,60.59
2017-09-11T13:45:55.087Z,62.56
2017-09-11T13:48:24.416Z,60.63
2017-09-11T13:51:00.581Z,61.20
2017-09-11T13:53:29.876Z,60.42
2017-09-11T13:55:59.227Z,60.18
2017-09-11T13:58:28.593Z,60.07
2017-09-11T14:00:58.022Z,60.01
2017-09-11T14:03:27.464Z,61.71
2017-09-11T14:05:56.908Z,60.66
2017-09-11T14:08:26.278Z,60.76
2017-09-11T14:10:58.772Z,60.61
2017-09-11T14:13:28.281Z,60.72
2017-09-11T14:15:57.919Z,60.99
2017-09-11T14:18:27.334Z,59.99
2017-09-11T14:20:56.690Z,60.62
2017-09-11T14:23:26.164Z,59.11
2017-09-11T14:25:55.572Z,60.34
2017-09-11T14:28:25.020Z,60.98
2017-09-11T14:30:54.463Z,61.14
2017-09-11T14:33:23.856Z,60.60
2017-09-11T14:35:53.157Z,61.06
2017-09-11T14:38:22.574Z,61.08
2017-09-11T14:40:51.952Z,59.81
2017-09-11T14:43:21.252Z,59.90
2017-09-11T14:45:50.547Z,60.70
2017-09-11T14:48:19.859Z,60.95
2017-09-11T14:50:49.556Z,60.80
2017-09-11T14:53:18.846Z,61.17
2017-09-11T14:55:48.189Z,61.34
2017-09-11T14:58:18.045Z,61.36
2017-09-11T15:00:47.377Z,61.64
2017-09-11T15:03:16.809Z,61.99
2017-09-11T15:05:46.144Z,62.30
2017-09-11T15:08:15.422Z,61.30
2017-09-11T15:10:44.941Z,61.96
2017-09-11T15:13:14.257Z,62.78
2017-09-11T15:15:43.641Z,62.52
2017-09-11T15:18:12.948Z,62.72
2017-09-11T15:23:17.901Z,62.23
2017-09-11T15:25:47.262Z,62.39
2017-09-11T15:28:16.669Z,62.77
2017-09-11T15:30:46.046Z,63.25
2017-09-11T15:33:15.512Z,63.63
2017-09-11T15:35:44.929Z,63.07
2017-09-11T15:38:14.289Z,63.06
2017-09-11T15:40:43.742Z,62.66
2017-09-11T15:43:13.134Z,62.28
2017-09-11T15:45:42.536Z,62.69
2017-09-11T15:48:11.823Z,63.07
2017-09-11T15:50:41.282Z,63.25
2017-09-11T15:53:10.805Z,63.66
2017-09-11T15:55:40.206Z,63.51
2017-09-11T15:58:09.770Z,63.04
2017-09-11T16:00:39.476Z,63.40
2017-09-11T16:03:15.567Z,63.49
2017-09-11T16:05:45.250Z,63.66
2017-09-11T16:08:14.747Z,63.81
2017-09-11T16:10:44.109Z,63.92
2017-09-11T16:13:13.604Z,63.56
2017-09-11T16:15:43.810Z,63.54
2017-09-11T16:18:13.158Z,63.68
2017-09-11T16:20:43.516Z,63.40
2017-09-11T16:23:13.167Z,63.20
2017-09-11T16:25:42.597Z,63.52
2017-09-11T16:28:12.162Z,63.65
2017-09-11T16:30:41.784Z,63.89
2017-09-11T16:33:11.069Z,64.52
2017-09-11T16:35:40.526Z,64.50
2017-09-11T16:38:09.845Z,64.61
2017-09-11T16:40:41.883Z,65.13
2017-09-11T16:43:12.278Z,65.53
2017-09-11T16:45:41.861Z,65.97
2017-09-11T16:48:11.236Z,66.28
2017-09-11T16:50:41.055Z,66.24
2017-09-11T16:53:14.388Z,66.04
2017-09-11T16:55:49.730Z,66.14
2017-09-11T16:58:20.356Z,66.11
2017-09-11T17:00:49.928Z,66.57
2017-09-11T17:03:19.288Z,66.67
2017-09-11T17:05:48.667Z,66.68
2017-09-11T17:08:17.966Z,66.81
2017-09-11T17:10:47.408Z,66.99
2017-09-11T17:13:18.041Z,67.06
2017-09-11T17:15:47.868Z,67.01
2017-09-11T17:18:17.220Z,67.01
2017-09-11T17:20:46.636Z,66.94
2017-09-11T17:23:15.993Z,67.09
2017-09-11T17:25:52.122Z,67.41
2017-09-11T17:28:22.852Z,67.40
2017-09-11T17:30:56.559Z,67.43
2017-09-11T17:33:28.667Z,67.77
2017-09-11T17:35:59.154Z,67.92
2017-09-11T17:38:28.519Z,67.87
2017-09-11T17:40:57.934Z,67.67
2017-09-11T17:43:27.300Z,67.74
2017-09-11T17:45:57.792Z,67.55
2017-09-11T17:48:28.260Z,67.59
2017-09-11T17:50:57.896Z,67.71
2017-09-11T17:53:28.216Z,67.67
2017-09-11T17:55:57.673Z,67.70
2017-09-11T17:58:27.020Z,67.82
2017-09-11T18:00:56.668Z,67.76
2017-09-11T18:03:26.727Z,67.99
2017-09-11T18:05:56.183Z,68.37
2017-09-11T18:08:25.577Z,68.22
2017-09-11T18:10:54.994Z,68.24
2017-09-11T18:13:25.648Z,68.62
2017-09-11T18:15:55.081Z,68.61
2017-09-11T18:18:24.508Z,69.11
2017-09-11T18:20:54.116Z,68.79
2017-09-11T18:23:23.385Z,69.19
2017-09-11T18:25:52.684Z,69.08
2017-09-11T18:28:22.335Z,69.24
2017-09-11T18:30:51.720Z,69.49
2017-09-11T18:33:21.888Z,69.41
2017-09-11T18:35:51.583Z,69.35
2017-09-11T18:38:20.927Z,69.39
2017-09-11T18:40:50.298Z,69.46
2017-09-11T18:43:19.926Z,70.02
2017-09-11T18:45:49.789Z,70.03
2017-09-11T18:48:20.131Z,70.35
2017-09-11T18:50:49.790Z,70.08
2017-09-11T18:53:19.238Z,70.08
2017-09-11T18:55:48.719Z,69.97
2017-09-11T18:58:23.134Z,70.12
2017-09-11T19:00:53.993Z,70.18
2017-09-11T19:03:23.929Z,70.11
2017-09-11T19:05:53.741Z,70.13
2017-09-11T19:08:23.075Z,70.56
2017-09-11T19:10:53.322Z,70.44
2017-09-11T19:13:22.729Z,70.63
2017-09-11T19:15:52.065Z,70.57
2017-09-11T19:18:21.391Z,70.76
2017-09-11T19:20:50.717Z,70.76
2017-09-11T19:23:20.023Z,70.75
2017-09-11T19:25:50.450Z,70.96
2017-09-11T19:28:19.737Z,70.60
2017-09-11T19:30:49.497Z,70.74
2017-09-11T19:33:19.052Z,70.91
2017-09-11T19:35:48.809Z,71.05
2017-09-11T19:38:18.316Z,70.86
2017-09-11T19:40:47.639Z,71.01
2017-09-11T19:43:21.311Z,71.26
2017-09-11T19:45:51.654Z,71.43
2017-09-11T19:48:23.788Z,71.78
2017-09-11T19:50:54.591Z,71.98
2017-09-11T19:53:23.932Z,72.32
2017-09-11T19:55:53.425Z,72.18
2017-09-11T19:58:23.153Z,72.43
2017-09-11T20:00:52.568Z,72.67
2017-09-11T20:03:21.940Z,73.05
2017-09-11T20:05:51.529Z,73.55
2017-09-11T20:08:22.001Z,73.92
2017-09-11T20:10:52.624Z,73.96
2017-09-11T20:13:23.325Z,74.36
2017-09-11T20:15:52.721Z,74.51
2017-09-11T20:18:23.417Z,74.90
2017-09-11T20:20:54.854Z,74.92
2017-09-11T20:23:24.203Z,75.53
2017-09-11T20:25:53.755Z,75.74
2017-09-11T20:28:23.176Z,75.71
2017-09-11T20:30:53.031Z,76.39
2017-09-11T20:33:22.343Z,76.53
2017-09-11T20:35:52.125Z,76.28
2017-09-11T20:38:21.634Z,76.36
2017-09-11T20:40:51.241Z,76.70
2017-09-11T20:43:20.865Z,76.77
2017-09-11T20:45:51.461Z,76.67
2017-09-11T20:48:20.844Z,77.01
2017-09-11T20:50:50.223Z,77.01
2017-09-11T20:53:19.539Z,76.87
2017-09-11T20:55:48.968Z,76.70
2017-09-11T20:58:18.532Z,76.60
2017-09-11T21:00:47.993Z,76.68
2017-09-11T21:03:17.459Z,76.91
2017-09-11T21:05:46.864Z,76.66
2017-09-11T21:08:16.765Z,76.90
2017-09-11T21:10:46.240Z,76.86
2017-09-11T21:13:15.758Z,77.04
2017-09-11T21:15:45.184Z,77.11
2017-09-11T21:18:14.587Z,76.98
2017-09-11T21:20:44.014Z,77.22
2017-09-11T21:23:13.536Z,77.12
2017-09-11T21:25:43.049Z,77.23
2017-09-11T21:28:12.446Z,77.15
2017-09-11T21:30:41.883Z,76.99
2017-09-11T21:33:11.256Z,77.04
2017-09-11T21:35:40.764Z,76.83
2017-09-11T21:38:10.285Z,77.22
2017-09-11T21:40:39.762Z,77.46
2017-09-11T21:43:09.162Z,77.65
2017-09-11T21:45:38.598Z,77.40
2017-09-11T21:48:07.932Z,77.67
2017-09-11T21:50:37.356Z,77.65
2017-09-11T21:53:06.719Z,77.68
2017-09-11T21:55:36.086Z,77.95
2017-09-11T21:58:05.484Z,77.93
2017-09-11T22:00:34.844Z,78.25
2017-09-11T22:05:40.045Z,78.34
2017-09-11T22:08:09.562Z,78.50
2017-09-11T22:10:39.026Z,78.67
2017-09-11T22:13:08.500Z,78.68
2017-09-11T22:15:38.108Z,78.73
2017-09-11T22:18:07.490Z,78.61
2017-09-11T22:20:36.870Z,78.96
2017-09-11T22:23:06.202Z,79.29
2017-09-11T22:25:36.044Z,78.94
2017-09-11T22:28:05.578Z,79.63
2017-09-11T22:30:35.270Z,80.45
2017-09-11T22:33:04.656Z,79.32
2017-09-11T22:35:34.042Z,79.44
2017-09-11T22:38:03.455Z,79.31
2017-09-11T22:40:32.825Z,79.00
2017-09-11T22:43:02.262Z,79.21
2017-09-11T22:45:31.732Z,79.26
2017-09-11T22:48:02.053Z,79.02
2017-09-11T22:50:32.174Z,79.18
2017-09-11T22:53:09.077Z,79.04
2017-09-11T22:55:38.832Z,79.38
2017-09-11T22:58:08.228Z,79.58
2017-09-11T23:00:37.587Z,79.30
2017-09-11T23:03:07.632Z,79.18
2017-09-11T23:05:37.593Z,79.42
2017-09-11T23:08:08.072Z,79.09
2017-09-11T23:10:37.593Z,79.29
2017-09-11T23:13:07.068Z,78.63
2017-09-11T23:15:36.722Z,78.51
2017-09-11T23:18:06.104Z,78.01
2017-09-11T23:20:35.459Z,77.84
2017-09-11T23:23:04.815Z,77.70
2017-09-11T23:25:34.186Z,77.75
2017-09-11T23:28:03.589Z,78.02
2017-09-11T23:30:33.087Z,77.66
2017-09-11T23:33:02.488Z,77.79
2017-09-11T23:35:31.842Z,77.18
2017-09-11T23:38:01.190Z,76.70
2017-09-11T23:40:30.585Z,76.48
2017-09-11T23:42:59.920Z,76.27
2017-09-11T23:45:29.630Z,76.14
2017-09-11T23:47:59.109Z,75.99
2017-09-11T23:50:28.567Z,75.92
2017-09-11T23:52:58.008Z,76.12
2017-09-11T23:55:27.453Z,76.10
2017-09-11T23:57:56.848Z,75.97
